Flight Track Log - Related Links

Times and Time Zones

All times are in EDT time to prevent confusion due to time zone crossing. See the RPA3275 flight status page for this flight to view local times or setup timezone preferences in your user account.

Time Position Orientation Groundspeed Altitude Reporting Facility
EDT Latitude Longitude Course Direction KTS MPH feet Rate Location/Type
Sun 10:36:19 AM 39.8667 -75.2833 270° West 148 170 800  Level Philadelphia TRACON
Sun 10:37:25 AM 39.8500 -75.3333 247° West 191 220 2,400 2,000 Climbing Philadelphia TRACON
Sun 10:38:00 AM 39.9000 -75.5042 270° West  Level FlightAware Approximate
Sun 10:38:25 AM 39.8333 -75.4167 255° West 230 265 5,000  Level Philadelphia TRACON
Sun 10:39:00 AM 39.9078 -75.6310 288° West  Level FlightAware Approximate
Sun 10:39:25 AM 39.8500 -75.5000 285° West 233 268 7,900  Level Philadelphia TRACON
Sun 10:40:00 AM 39.9019 -75.7555 258° West  Level FlightAware Approximate
Sun 10:41:00 AM 39.9001 -75.8837 270° West  Level FlightAware Approximate
Sun 10:41:31 AM 39.8606 -75.6956 274° West 279 321 12,500  Level New York Center
Sun 10:42:32 AM 39.8692 -75.7908 277° West 284 327 14,600 2,521 Climbing New York Center
Sun 10:43:30 AM 39.8789 -75.8997 277° West 290 334 17,500 2,521 Climbing New York Center
Sun 10:44:31 AM 39.8953 -76.0039 282° West 290 334 19,600 1,850 Climbing New York Center
Sun 10:45:30 AM 39.9006 -76.1153 274° West 300 345 21,200 1,513 Climbing New York Center
Sun 10:46:30 AM 39.9111 -76.2053 279° West 305 351 22,600 1,736 Climbing New York Center
Sun 10:47:31 AM 39.9108 -76.3461 270° West 323 372 24,700 1,785 Climbing New York Center
Sun 10:48:31 AM 39.9175 -76.4683 274° West 336 387 26,200 1,450 Climbing New York Center
Sun 10:49:31 AM 39.9281 -76.5911 276° West 341 392 27,600 1,210 Climbing New York Center
Sun 10:50:30 AM 39.9389 -76.7139 277° West 346 398 28,600 1,119 Climbing New York Center
Sun 10:51:29 AM 39.9531 -76.8450 278° West 354 407 29,800 689 Climbing New York Center
Sun 10:52:32 AM 39.9631 -76.9733 276° West 360 414 30,000 100 Climbing New York Center
Sun 10:53:29 AM 39.9750 -77.1017 277° West 360 414 30,000  Level New York Center
Sun 10:54:29 AM 39.9872 -77.2219 278° West 354 407 30,000  Level New York Center
Sun 10:55:30 AM 39.9989 -77.3506 277° West 354 407 30,000  Level New York Center
Sun 10:56:31 AM 40.0106 -77.4764 277° West 354 407 30,000  Level New York Center
Sun 10:57:46 AM 40.0247 -77.6278 277° West 359 413 30,000  Level Cleveland Center
Sun 10:58:46 AM 40.0364 -77.7603 277° West 365 420 30,000  Level Cleveland Center
Sun 10:59:46 AM 40.0478 -77.8925 276° West 365 420 30,000  Level Cleveland Center
Sun 11:00:46 AM 40.0658 -78.0358 279° West 377 434 30,000  Level Cleveland Center
Sun 11:01:46 AM 40.1103 -78.1697 293° West 392 451 30,000  Level Cleveland Center
Sun 11:02:46 AM 40.1550 -78.3067 293° West 405 466 30,000  Level Cleveland Center
Sun 11:03:46 AM 40.1992 -78.4411 293° West 410 472 30,000  Level Cleveland Center
Sun 11:04:46 AM 40.2433 -78.5731 294° West 410 472 30,000  Level Cleveland Center
Sun 11:05:46 AM 40.2894 -78.7078 294° West 410 472 30,000  Level Cleveland Center
Sun 11:06:46 AM 40.3353 -78.8481 293° West 410 472 30,000  Level Cleveland Center
Sun 11:07:46 AM 40.3811 -78.9831 294° West 410 472 30,000  Level Cleveland Center
Sun 11:08:46 AM 40.4225 -79.1214 291° West 410 472 30,000  Level Cleveland Center
Sun 11:09:46 AM 40.4661 -79.2594 293° West 410 472 30,000  Level Cleveland Center
Sun 11:10:46 AM 40.5178 -79.4086 295° West 410 472 30,000  Level Cleveland Center
Sun 11:11:46 AM 40.5628 -79.5472 293° West 410 472 30,000  Level Cleveland Center
Sun 11:12:46 AM 40.6056 -79.6833 293° West 410 472 30,000  Level Cleveland Center
Sun 11:13:46 AM 40.6503 -79.8222 293° West 410 472 30,000  Level Cleveland Center
Sun 11:14:46 AM 40.6908 -79.9561 292° West 410 472 30,000  Level Cleveland Center
Sun 11:15:46 AM 40.7289 -80.0761 293° West 410 472 30,000  Level Cleveland Center
Sun 11:16:46 AM 40.7711 -80.2131 292° West 410 472 30,000  Level Cleveland Center
Sun 11:17:46 AM 40.8111 -80.3444 292° West 404 465 30,000  Level Cleveland Center
Sun 11:18:46 AM 40.8572 -80.4897 293° West 398 458 30,000  Level Cleveland Center
Sun 11:19:46 AM 40.8947 -80.6078 293° West 391 450 30,000  Level Cleveland Center
Sun 11:20:46 AM 40.9342 -80.7369 292° West 391 450 30,000  Level Cleveland Center
Sun 11:21:46 AM 40.9778 -80.8719 293° West 391 450 30,000  Level Cleveland Center
Sun 11:22:46 AM 41.0253 -81.0014 296° West 391 450 30,000  Level Cleveland Center
Sun 11:23:46 AM 41.0789 -81.1450 296° West 396 456 30,000  Level Cleveland Center
Sun 11:24:46 AM 41.1325 -81.2722 299° West 396 456 30,000  Level Cleveland Center
Sun 11:25:46 AM 41.1817 -81.3942 298° West 384 442 30,000  Level Cleveland Center
Sun 11:26:46 AM 41.2308 -81.5081 300° West 384 442 30,000 -450 Level Cleveland Center
Sun 11:27:46 AM 41.2797 -81.6331 298° West 384 442 29,100 -1,400 Descending Cleveland Center
Sun 11:28:46 AM 41.3264 -81.7556 297° West 384 442 27,200 -1,850 Descending Cleveland Center
Sun 11:29:46 AM 41.3733 -81.8669 299° West 365 420 25,400 -1,850 Descending Cleveland Center
Sun 11:30:46 AM 41.4175 -81.9925 295° West 344 396 23,500 -1,800 Descending Cleveland Center
Sun 11:31:46 AM 41.4600 -82.0986 298° West 333 383 21,800 -1,650 Descending Cleveland Center
Sun 11:32:46 AM 41.5003 -82.2050 297° West 328 377 20,200 -1,650 Descending Cleveland Center
Sun 11:33:46 AM 41.5425 -82.3089 299° West 328 377 18,500 -1,631 Descending Cleveland Center
Sun 11:34:29 AM 41.5728 -82.3844 298° West 323 372 17,400 -1,700 Descending Cleveland Center
Sun 11:34:46 AM 41.5825 -82.4153 293° West 328 377 16,800 -1,800 Descending Cleveland Center
Sun 11:35:29 AM 41.6167 -82.4969 299° West 325 374 15,600 -1,400 Descending Cleveland Center
Sun 11:35:46 AM 41.6206 -82.5108 291° West 328 377 15,400 -1,574 Descending Cleveland Center
Sun 11:36:30 AM 41.6544 -82.6008 297° West 315 362 14,000 -1,800 Descending Cleveland Center
Sun 11:36:46 AM 41.6644 -82.6261 298° West 328 377 13,600 -1,579 Descending Cleveland Center
Sun 11:37:46 AM 41.7022 -82.7275 297° West 322 371 12,000 -914 Descending Cleveland Center
Sun 11:38:31 AM 41.7406 -82.8011 305° West 308 354 12,000  Level Cleveland Center
Sun 11:38:46 AM 41.7547 -82.8183 318° Northwest 312 359 12,000  Level Cleveland Center
Sun 11:39:32 AM 41.8056 -82.8758 320° Northwest 308 354 12,000  Level Cleveland Center
Sun 11:40:33 AM 41.8686 -82.9533 318° Northwest 308 354 12,000  Level Cleveland Center
Sun 11:41:33 AM 41.9256 -83.0225 318° Northwest 287 330 12,000 -496 Level Cleveland Center
Sun 11:42:34 AM 41.9867 -83.0917 320° Northwest 251 289 11,000 -492 Descending Cleveland Center
Sun 11:43:35 AM 42.0375 -83.1581 316° Northwest 256 295 11,000  Level Cleveland Center
Sun 11:44:36 AM 42.0989 -83.2053 330° Northwest 261 300 11,000 -893 Level Cleveland Center
Sun 11:45:36 AM 42.1672 -83.2278 346° North 268 308 9,200 -1,736 Descending Cleveland Center
Sun 11:46:37 AM 42.2367 -83.1942 20° North 274 315 7,500 -1,721 Descending Cleveland Center
Sun 11:47:38 AM 42.3083 -83.1633 18° North 261 300 5,700 -1,131 Descending Cleveland Center
Sun 11:48:39 AM 42.3636 -83.2022 333° Northwest 214 246 5,200 -545 Descending Cleveland Center
Sun 11:49:39 AM 42.3456 -83.2661 249° West 197 227 4,600 -1,041 Descending Cleveland Center
Sun 11:50:40 AM 42.3028 -83.3092 217° Southwest 185 213 3,100 -1,475 Descending Cleveland Center

Login

Don't have an account? Register now (free) for customized features, flight alerts, and more!